createdAt,value
2018-12-11T00:01:00.578Z,1.72
2018-12-11T00:11:20.067Z,1.75
2018-12-11T00:21:39.334Z,1.70
2018-12-11T00:32:00.127Z,1.71
2018-12-11T00:42:19.216Z,1.67
2018-12-11T00:52:38.826Z,1.70
2018-12-11T01:02:57.970Z,1.73
2018-12-11T01:13:17.341Z,1.82
2018-12-11T01:23:36.753Z,1.78
2018-12-11T01:33:56.789Z,1.86
2018-12-11T01:44:16.653Z,1.90
2018-12-11T01:54:37.423Z,1.79
2018-12-11T02:04:57.309Z,1.73
2018-12-11T02:15:17.046Z,1.63
2018-12-11T02:25:36.877Z,1.73
2018-12-11T02:35:56.553Z,1.75
2018-12-11T02:46:16.255Z,1.77
2018-12-11T02:56:36.027Z,1.76
2018-12-11T03:06:55.752Z,1.81
2018-12-11T03:17:16.084Z,1.95
2018-12-11T03:27:35.451Z,1.93
2018-12-11T03:37:54.917Z,1.93
2018-12-11T03:48:14.425Z,1.66
2018-12-11T03:58:34.146Z,1.43
2018-12-11T04:08:57.200Z,1.57
2018-12-11T04:19:16.909Z,1.61
2018-12-11T04:29:37.974Z,1.62
2018-12-11T04:39:57.874Z,1.27
2018-12-11T04:50:17.605Z,1.23
2018-12-11T05:00:36.805Z,1.21
2018-12-11T05:10:56.174Z,1.28
2018-12-11T05:21:15.627Z,1.43
2018-12-11T05:31:35.511Z,1.49
2018-12-11T05:41:56.123Z,1.58
2018-12-11T05:52:14.954Z,1.64
2018-12-11T06:02:34.701Z,1.65
2018-12-11T06:12:55.911Z,1.73
2018-12-11T06:23:16.024Z,1.85
2018-12-11T06:33:36.030Z,1.81
2018-12-11T06:43:55.771Z,1.89
2018-12-11T06:54:15.529Z,1.92
2018-12-11T07:04:36.106Z,1.96
2018-12-11T07:14:55.064Z,2.02
2018-12-11T07:25:14.514Z,2.04
2018-12-11T07:35:33.957Z,2.13
2018-12-11T07:45:53.463Z,2.14
2018-12-11T07:56:13.450Z,2.23
2018-12-11T08:06:34.765Z,2.09
2018-12-11T08:16:53.899Z,2.03
2018-12-11T08:27:13.812Z,1.92
2018-12-11T08:37:34.041Z,1.98
2018-12-11T08:47:53.086Z,1.98
2018-12-11T08:58:13.431Z,1.93
2018-12-11T09:08:33.092Z,1.92
2018-12-11T09:18:53.121Z,1.89
2018-12-11T09:29:12.451Z,1.81
2018-12-11T09:39:31.875Z,1.73
2018-12-11T09:49:52.097Z,1.79
2018-12-11T10:00:11.821Z,1.87
2018-12-11T10:10:31.563Z,1.87
2018-12-11T10:20:51.262Z,1.95
2018-12-11T10:31:13.297Z,2.06
2018-12-11T10:41:34.041Z,2.00
2018-12-11T10:51:54.592Z,1.72
2018-12-11T11:02:24.260Z,1.82
2018-12-11T11:12:43.778Z,1.99
2018-12-11T11:23:04.610Z,2.13
2018-12-11T11:33:24.928Z,2.22
2018-12-11T11:43:45.445Z,2.41
2018-12-11T11:54:05.754Z,2.44
2018-12-11T12:04:25.110Z,2.67
2018-12-11T12:14:49.019Z,2.62
2018-12-11T12:25:06.548Z,2.77
2018-12-11T12:35:26.088Z,2.66
2018-12-11T12:45:46.030Z,2.32
2018-12-11T12:56:05.546Z,2.33
2018-12-11T13:06:25.898Z,2.35
2018-12-11T13:16:45.642Z,2.23
2018-12-11T13:27:05.523Z,2.20
2018-12-11T13:37:24.892Z,2.40
2018-12-11T13:47:45.623Z,2.42
2018-12-11T13:58:05.865Z,2.24
2018-12-11T14:08:26.483Z,2.03
2018-12-11T14:18:46.387Z,1.98
2018-12-11T14:29:06.624Z,1.87
2018-12-11T14:39:28.854Z,2.06
2018-12-11T14:49:48.693Z,2.00
2018-12-11T15:00:10.496Z,2.00
2018-12-11T15:10:31.033Z,1.83
2018-12-11T15:20:50.860Z,1.70
2018-12-11T15:31:11.514Z,1.63
2018-12-11T15:41:34.221Z,1.57
2018-12-11T15:51:54.476Z,1.66
2018-12-11T16:02:14.505Z,1.77
2018-12-11T16:12:35.162Z,1.90
2018-12-11T16:22:58.557Z,1.97
2018-12-11T16:33:22.306Z,1.97
2018-12-11T16:43:46.387Z,2.09
2018-12-11T16:54:09.726Z,2.04
2018-12-11T17:04:32.162Z,2.09
2018-12-11T17:14:52.333Z,1.98
2018-12-11T17:25:14.677Z,2.13
2018-12-11T17:35:35.379Z,2.16
2018-12-11T17:45:58.009Z,2.19
2018-12-11T17:56:18.454Z,2.06
2018-12-11T18:06:38.717Z,2.05
2018-12-11T18:17:03.279Z,1.94
2018-12-11T18:27:26.649Z,1.94
2018-12-11T18:37:49.487Z,1.93
2018-12-11T18:48:13.490Z,1.85
2018-12-11T18:58:35.795Z,1.73
2018-12-11T19:09:05.707Z,1.69
2018-12-11T19:19:26.564Z,1.70
2018-12-11T19:29:49.471Z,1.61
2018-12-11T19:40:14.500Z,1.66
2018-12-11T19:50:39.558Z,1.68
2018-12-11T20:01:03.602Z,1.60
2018-12-11T20:11:25.171Z,1.68
2018-12-11T20:21:56.243Z,1.74
2018-12-11T20:32:22.497Z,1.76
2018-12-11T20:42:49.950Z,1.74
2018-12-11T20:53:16.927Z,1.85
2018-12-11T21:03:41.454Z,1.90
2018-12-11T21:14:02.138Z,1.87
2018-12-11T21:24:25.518Z,1.89
2018-12-11T21:34:46.651Z,1.87
2018-12-11T21:45:07.325Z,1.85
2018-12-11T21:55:28.527Z,1.97
2018-12-11T22:05:49.138Z,1.98
2018-12-11T22:16:11.160Z,1.98
2018-12-11T22:26:33.275Z,1.99
2018-12-11T22:36:52.611Z,1.77
2018-12-11T22:47:12.762Z,1.87
2018-12-11T22:57:33.111Z,1.86
2018-12-11T23:07:52.645Z,1.81
2018-12-11T23:18:12.058Z,1.79
2018-12-11T23:28:31.650Z,1.75
2018-12-11T23:38:51.145Z,1.85
2018-12-11T23:49:10.353Z,1.82
2018-12-11T23:59:29.559Z,1.87
